createdAt,value
2023-11-23T00:00:13.479Z,7.38
2023-11-23T00:02:41.653Z,7.13
2023-11-23T00:05:10.622Z,6.85
2023-11-23T00:07:39.428Z,6.72
2023-11-23T00:10:07.537Z,6.32
2023-11-23T00:12:34.645Z,7.68
2023-11-23T00:15:02.454Z,7.13
2023-11-23T00:17:31.662Z,6.03
2023-11-23T00:19:59.422Z,5.40
2023-11-23T00:22:27.543Z,7.22
2023-11-23T00:24:55.560Z,6.95
2023-11-23T00:27:22.581Z,8.10
2023-11-23T00:29:49.791Z,5.97
2023-11-23T00:32:16.907Z,5.88
2023-11-23T00:34:43.909Z,6.30
2023-11-23T00:37:11.276Z,5.95
2023-11-23T00:39:38.400Z,6.55
2023-11-23T00:42:05.628Z,6.70
2023-11-23T00:44:32.730Z,7.45
2023-11-23T00:46:59.987Z,5.32
2023-11-23T00:49:28.117Z,5.97
2023-11-23T00:51:55.078Z,5.53
2023-11-23T00:54:22.772Z,7.00
2023-11-23T00:56:49.759Z,5.38
2023-11-23T00:59:16.898Z,5.30
2023-11-23T01:01:46.970Z,5.63
2023-11-23T01:04:14.621Z,5.53
2023-11-23T01:06:43.323Z,6.38
2023-11-23T01:09:10.876Z,5.20
2023-11-23T01:11:38.022Z,5.60
2023-11-23T01:14:05.183Z,5.53
2023-11-23T01:16:32.761Z,6.47
2023-11-23T01:18:59.654Z,6.10
2023-11-23T01:21:26.701Z,6.20
2023-11-23T01:23:54.067Z,5.72
2023-11-23T01:26:21.073Z,7.32
2023-11-23T01:28:48.160Z,5.43
2023-11-23T01:31:15.075Z,7.22
2023-11-23T01:33:44.993Z,6.50
2023-11-23T01:36:12.139Z,5.82
2023-11-23T01:38:39.110Z,5.78
2023-11-23T01:41:06.258Z,7.35
2023-11-23T01:43:33.212Z,5.93
2023-11-23T01:46:00.185Z,7.72
2023-11-23T01:48:30.353Z,6.55
2023-11-23T01:50:58.194Z,6.05
2023-11-23T01:53:25.277Z,6.13
2023-11-23T01:55:52.568Z,7.07
2023-11-23T01:58:20.587Z,7.80
2023-11-23T02:00:51.434Z,9.30
2023-11-23T02:03:20.461Z,8.77
2023-11-23T02:05:47.662Z,6.20
2023-11-23T02:08:14.742Z,6.15
2023-11-23T02:10:41.666Z,8.75
2023-11-23T02:13:08.769Z,6.05
2023-11-23T02:15:38.595Z,9.15
2023-11-23T02:18:08.591Z,7.13
2023-11-23T02:20:36.087Z,8.63
2023-11-23T02:23:03.045Z,7.85
2023-11-23T02:25:30.036Z,11.25
2023-11-23T02:27:57.094Z,7.30
2023-11-23T02:30:24.174Z,7.13
2023-11-23T02:32:51.485Z,14.10
2023-11-23T02:35:22.312Z,7.38
2023-11-23T02:37:49.459Z,6.63
2023-11-23T02:40:16.727Z,13.68
2023-11-23T02:42:46.295Z,8.43
2023-11-23T02:45:14.351Z,7.50
2023-11-23T02:47:41.701Z,8.10
2023-11-23T02:50:10.599Z,7.68
2023-11-23T02:52:37.492Z,9.07
2023-11-23T02:55:04.708Z,9.95
2023-11-23T02:57:31.935Z,7.88
2023-11-23T02:59:58.852Z,8.65
2023-11-23T03:02:26.025Z,10.65
2023-11-23T03:04:55.440Z,7.93
2023-11-23T03:07:22.373Z,8.60
2023-11-23T03:09:50.280Z,6.60
2023-11-23T03:12:17.802Z,8.77
2023-11-23T03:14:45.141Z,7.85
2023-11-23T03:17:12.215Z,7.90
2023-11-23T03:19:39.361Z,9.15
2023-11-23T03:22:07.951Z,7.13
2023-11-23T03:24:34.887Z,11.27
2023-11-23T03:27:02.074Z,9.95
2023-11-23T03:29:29.620Z,10.18
2023-11-23T03:31:56.524Z,9.73
2023-11-23T03:34:23.506Z,9.15
2023-11-23T03:36:50.461Z,10.10
2023-11-23T03:39:19.588Z,12.48
2023-11-23T03:41:48.755Z,10.80
2023-11-23T03:44:15.813Z,10.05
2023-11-23T03:46:43.137Z,8.23
2023-11-23T03:49:10.221Z,10.55
2023-11-23T03:51:37.705Z,11.02
2023-11-23T03:54:05.208Z,11.73
2023-11-23T03:56:32.433Z,13.02
2023-11-23T03:58:59.486Z,12.63
2023-11-23T04:01:26.422Z,14.60
2023-11-23T04:03:53.676Z,14.68
2023-11-23T04:06:20.730Z,11.43
2023-11-23T04:08:49.046Z,12.05
2023-11-23T04:11:16.322Z,13.90
2023-11-23T04:13:43.467Z,12.35
2023-11-23T04:16:10.515Z,13.60
2023-11-23T04:18:37.553Z,10.70
2023-11-23T04:21:05.250Z,11.60
2023-11-23T04:23:32.616Z,10.88
2023-11-23T04:25:59.662Z,16.08
2023-11-23T04:28:27.161Z,12.52
2023-11-23T04:30:54.950Z,17.40
2023-11-23T04:33:24.377Z,14.38
2023-11-23T04:35:51.670Z,16.83
2023-11-23T04:38:18.690Z,18.13
2023-11-23T04:40:45.690Z,18.30
2023-11-23T04:43:13.508Z,19.13
2023-11-23T04:45:41.089Z,14.80
2023-11-23T04:48:08.306Z,13.98
2023-11-23T04:50:36.294Z,13.32
2023-11-23T04:53:03.492Z,19.77
2023-11-23T04:55:30.734Z,15.10
2023-11-23T04:57:58.108Z,14.30
2023-11-23T05:00:28.755Z,15.68
2023-11-23T05:02:56.211Z,11.57
2023-11-23T05:05:23.208Z,16.00
2023-11-23T05:07:50.579Z,12.90
2023-11-23T05:10:17.919Z,16.08
2023-11-23T05:12:44.827Z,17.60
2023-11-23T05:15:11.812Z,16.42
2023-11-23T05:17:39.298Z,11.68
2023-11-23T05:20:06.903Z,16.42
2023-11-23T05:22:34.238Z,15.57
2023-11-23T05:25:01.305Z,12.48
2023-11-23T05:27:28.264Z,11.98
2023-11-23T05:29:55.217Z,14.57
2023-11-23T05:32:22.132Z,18.85
2023-11-23T05:34:49.002Z,17.25
2023-11-23T05:37:15.878Z,16.25
2023-11-23T05:39:44.585Z,18.55
2023-11-23T05:42:12.468Z,23.02
2023-11-23T05:44:39.771Z,14.07
2023-11-23T05:47:07.201Z,14.32
2023-11-23T05:49:34.513Z,13.52
2023-11-23T05:52:01.438Z,14.55
2023-11-23T05:54:29.411Z,13.43
2023-11-23T05:56:56.361Z,17.83
2023-11-23T05:59:23.296Z,17.20
2023-11-23T06:01:50.418Z,14.63
2023-11-23T06:04:18.056Z,12.02
2023-11-23T06:06:45.104Z,13.45
2023-11-23T06:09:12.153Z,14.50
2023-11-23T06:11:39.072Z,15.40
2023-11-23T06:14:06.155Z,15.02
2023-11-23T06:16:33.206Z,13.15
2023-11-23T06:19:03.496Z,16.42
2023-11-23T06:21:31.517Z,11.95
2023-11-23T06:23:59.512Z,12.88
2023-11-23T06:26:26.520Z,10.15
2023-11-23T06:28:53.460Z,12.55
2023-11-23T06:31:20.499Z,12.48
2023-11-23T06:33:47.507Z,12.65
2023-11-23T06:36:14.549Z,14.98
2023-11-23T06:38:41.638Z,15.25
2023-11-23T06:41:21.461Z,16.17
2023-11-23T06:43:53.102Z,18.90
2023-11-23T06:46:21.212Z,25.17
2023-11-23T06:48:48.382Z,22.17
2023-11-23T06:51:15.546Z,26.58
2023-11-23T06:53:47.940Z,22.80
2023-11-23T06:56:16.424Z,19.20
2023-11-23T06:58:44.435Z,23.02
2023-11-23T07:01:11.633Z,15.85
2023-11-23T07:03:39.421Z,14.68
2023-11-23T07:06:07.274Z,14.38
2023-11-23T07:08:35.445Z,17.38
2023-11-23T07:11:03.253Z,13.70
2023-11-23T07:13:31.829Z,15.43
2023-11-23T07:16:06.264Z,14.10
2023-11-23T07:18:33.356Z,25.20
2023-11-23T07:21:00.757Z,16.70
2023-11-23T07:23:27.805Z,14.13
2023-11-23T07:25:54.887Z,14.93
2023-11-23T07:28:28.623Z,18.17
2023-11-23T07:30:58.796Z,15.85
2023-11-23T07:33:30.611Z,14.98
2023-11-23T07:35:57.866Z,16.75
2023-11-23T07:38:24.775Z,13.48
2023-11-23T07:40:51.719Z,15.23
2023-11-23T07:43:18.601Z,16.23
2023-11-23T07:45:45.529Z,24.55
2023-11-23T07:48:15.529Z,24.42
2023-11-23T07:50:44.384Z,19.48
2023-11-23T07:53:11.358Z,18.60
2023-11-23T07:55:38.803Z,19.75
2023-11-23T07:58:05.894Z,15.57
2023-11-23T08:00:33.044Z,14.70
2023-11-23T08:03:00.123Z,20.50
2023-11-23T08:05:27.266Z,16.00
2023-11-23T08:07:55.025Z,17.88
2023-11-23T08:10:22.098Z,17.50
2023-11-23T08:12:49.649Z,22.40
2023-11-23T08:15:16.686Z,29.20
2023-11-23T08:20:15.239Z,24.45
2023-11-23T08:22:42.467Z,24.85
2023-11-23T08:25:10.373Z,17.15
2023-11-23T08:27:39.248Z,15.80
2023-11-23T08:30:07.805Z,15.25
2023-11-23T08:32:34.943Z,12.13
2023-11-23T08:35:04.057Z,13.95
2023-11-23T08:37:30.935Z,18.45
2023-11-23T08:39:57.873Z,16.15
2023-11-23T08:42:24.790Z,14.43
2023-11-23T08:44:52.709Z,13.98
2023-11-23T08:47:19.890Z,19.33
2023-11-23T08:49:46.847Z,19.25
2023-11-23T08:52:14.792Z,15.40
2023-11-23T08:54:41.728Z,14.48
2023-11-23T08:57:08.679Z,13.70
2023-11-23T08:59:38.805Z,14.95
2023-11-23T09:02:17.265Z,14.63
2023-11-23T09:04:47.887Z,13.27
2023-11-23T09:07:15.046Z,18.85
2023-11-23T09:09:42.014Z,20.23
2023-11-23T09:12:09.177Z,22.67
2023-11-23T09:14:46.444Z,17.38
2023-11-23T09:17:19.032Z,14.15
2023-11-23T09:19:48.044Z,11.85
2023-11-23T09:22:15.206Z,15.88
2023-11-23T09:24:42.538Z,13.90
2023-11-23T09:27:11.432Z,19.38
2023-11-23T09:29:38.623Z,19.20
2023-11-23T09:32:06.577Z,18.60
2023-11-23T09:34:33.838Z,21.88
2023-11-23T09:37:00.843Z,21.38
2023-11-23T09:39:28.899Z,21.70
2023-11-23T09:41:58.933Z,19.17
2023-11-23T09:44:29.482Z,21.30
2023-11-23T09:46:58.113Z,16.90
2023-11-23T09:49:26.047Z,16.98
2023-11-23T09:51:56.925Z,19.25
2023-11-23T09:54:28.052Z,16.02
2023-11-23T09:56:55.750Z,15.05
2023-11-23T09:59:24.607Z,13.05
2023-11-23T10:01:55.729Z,13.32
2023-11-23T10:04:26.877Z,18.30
2023-11-23T10:06:54.063Z,18.85
2023-11-23T10:09:24.262Z,19.80
2023-11-23T10:11:51.168Z,21.85
2023-11-23T10:14:18.717Z,16.75
2023-11-23T10:16:45.676Z,15.77
2023-11-23T10:19:22.513Z,13.90
2023-11-23T10:21:50.035Z,17.48
2023-11-23T10:24:17.697Z,14.25
2023-11-23T10:26:44.889Z,16.15
2023-11-23T10:29:13.023Z,18.10
2023-11-23T10:31:43.613Z,15.80
2023-11-23T10:34:12.216Z,15.25
2023-11-23T10:36:42.687Z,14.23
2023-11-23T10:39:14.165Z,14.90
2023-11-23T10:41:41.554Z,16.23
2023-11-23T10:44:09.692Z,20.15
2023-11-23T10:46:40.086Z,19.73
2023-11-23T10:49:08.326Z,20.15
2023-11-23T10:51:36.543Z,17.85
2023-11-23T10:54:04.714Z,17.48
2023-11-23T10:56:35.537Z,20.25
2023-11-23T10:59:09.853Z,23.00
2023-11-23T11:01:38.172Z,22.85
2023-11-23T11:04:06.309Z,19.10
2023-11-23T11:06:40.508Z,20.42
2023-11-23T11:09:17.645Z,16.50
2023-11-23T11:11:55.884Z,12.02
2023-11-23T11:14:41.085Z,11.95
2023-11-23T11:17:08.672Z,15.10
2023-11-23T11:19:48.990Z,19.75
2023-11-23T11:22:16.882Z,19.20
2023-11-23T11:24:46.185Z,18.67
2023-11-23T11:27:14.266Z,23.45
2023-11-23T11:29:52.385Z,27.95
2023-11-23T11:32:21.809Z,20.38
2023-11-23T11:34:48.649Z,21.35
2023-11-23T11:37:16.927Z,17.13
2023-11-23T11:39:44.350Z,19.20
2023-11-23T11:42:12.069Z,18.17
2023-11-23T11:44:44.648Z,20.52
2023-11-23T11:47:12.242Z,18.08
2023-11-23T11:49:39.671Z,20.13
2023-11-23T11:52:13.763Z,22.40
2023-11-23T11:54:41.132Z,23.23
2023-11-23T11:57:08.834Z,20.88
2023-11-23T11:59:37.566Z,20.83
2023-11-23T12:02:06.755Z,24.15
2023-11-23T12:04:36.258Z,24.98
2023-11-23T12:07:03.764Z,20.75
2023-11-23T12:09:38.600Z,16.45
2023-11-23T12:12:12.437Z,24.88
2023-11-23T12:14:39.368Z,26.85
2023-11-23T12:17:14.445Z,26.13
2023-11-23T12:19:55.497Z,20.80
2023-11-23T12:22:27.550Z,21.55
2023-11-23T12:24:56.575Z,21.65
2023-11-23T12:27:26.445Z,22.92
2023-11-23T12:29:53.980Z,27.23
2023-11-23T12:32:20.965Z,18.67
2023-11-23T12:34:48.100Z,23.65
2023-11-23T12:37:16.008Z,26.40
2023-11-23T12:39:42.973Z,23.13
2023-11-23T12:42:10.010Z,23.92
2023-11-23T12:44:37.300Z,22.13
2023-11-23T12:47:04.995Z,26.85
2023-11-23T12:49:32.359Z,22.30
2023-11-23T12:52:00.091Z,19.80
2023-11-23T12:54:27.033Z,22.38
2023-11-23T12:56:54.146Z,19.70
2023-11-23T12:59:21.306Z,20.80
2023-11-23T13:01:48.433Z,25.27
2023-11-23T13:04:20.454Z,19.17
2023-11-23T13:06:48.288Z,20.23
2023-11-23T13:09:19.885Z,22.50
2023-11-23T13:11:46.947Z,20.25
2023-11-23T13:14:13.934Z,23.90
2023-11-23T13:16:41.124Z,20.42
2023-11-23T13:19:17.150Z,29.02
2023-11-23T13:21:54.842Z,25.00
2023-11-23T13:24:22.040Z,22.33
2023-11-23T13:26:50.670Z,23.70
2023-11-23T13:29:17.803Z,24.08
2023-11-23T13:31:45.290Z,29.05
2023-11-23T13:34:13.250Z,28.48
2023-11-23T13:36:40.580Z,29.02
2023-11-23T13:39:09.935Z,27.58
2023-11-23T13:41:37.825Z,20.13
2023-11-23T13:44:05.615Z,24.35
2023-11-23T13:46:33.769Z,25.80
2023-11-23T13:49:01.215Z,21.83
2023-11-23T13:51:31.294Z,21.98
2023-11-23T13:53:59.570Z,25.70
2023-11-23T13:56:27.216Z,29.27
2023-11-23T13:58:54.393Z,23.48
2023-11-23T14:01:21.485Z,25.02
2023-11-23T14:03:48.759Z,27.10
2023-11-23T14:06:17.732Z,28.60
2023-11-23T14:08:45.485Z,30.23
2023-11-23T14:11:12.621Z,27.92
2023-11-23T14:13:39.726Z,28.50
2023-11-23T14:16:07.929Z,33.75
2023-11-23T14:18:40.222Z,31.55
2023-11-23T14:21:29.990Z,26.50
2023-11-23T14:23:57.186Z,33.97
2023-11-23T14:26:24.264Z,25.92
2023-11-23T14:28:51.770Z,31.08
2023-11-23T14:31:23.653Z,31.40
2023-11-23T14:33:56.220Z,25.13
2023-11-23T14:36:23.382Z,27.38
2023-11-23T14:38:53.235Z,22.25
2023-11-23T14:41:24.008Z,28.95
2023-11-23T14:43:51.361Z,29.58
2023-11-23T14:46:18.623Z,30.15
2023-11-23T14:48:45.859Z,26.85
2023-11-23T14:51:12.990Z,28.75
2023-11-23T14:53:40.120Z,27.77
2023-11-23T14:56:09.356Z,28.55
2023-11-23T14:58:36.357Z,25.20
2023-11-23T15:01:03.360Z,22.75
2023-11-23T15:03:31.496Z,30.60
2023-11-23T15:05:58.551Z,26.38
2023-11-23T15:08:25.487Z,26.20
2023-11-23T15:10:52.913Z,22.15
2023-11-23T15:13:26.047Z,23.40
2023-11-23T15:15:59.481Z,26.10
2023-11-23T15:18:26.463Z,23.77
2023-11-23T15:20:53.461Z,27.08
2023-11-23T15:23:21.626Z,30.42
2023-11-23T15:25:50.078Z,29.45
2023-11-23T15:28:18.639Z,25.77
2023-11-23T15:30:45.767Z,21.98
2023-11-23T15:33:12.860Z,25.50
2023-11-23T15:35:42.699Z,25.15
2023-11-23T15:38:10.562Z,23.20
2023-11-23T15:40:37.584Z,20.65
2023-11-23T15:43:04.510Z,22.33
2023-11-23T15:45:31.978Z,27.08
2023-11-23T15:47:59.027Z,21.27
2023-11-23T15:50:28.659Z,23.27
2023-11-23T15:52:57.250Z,27.60
2023-11-23T15:55:25.303Z,24.30
2023-11-23T15:57:52.543Z,26.77
2023-11-23T16:00:25.170Z,33.30
2023-11-23T16:02:54.368Z,26.50
2023-11-23T16:05:30.384Z,24.30
2023-11-23T16:07:57.742Z,29.90
2023-11-23T16:10:24.700Z,22.67
2023-11-23T16:12:52.537Z,26.88
2023-11-23T16:15:20.072Z,24.27
2023-11-23T16:17:47.756Z,21.30
2023-11-23T16:20:20.181Z,24.75
2023-11-23T16:22:47.510Z,28.55
2023-11-23T16:25:16.456Z,26.65
2023-11-23T16:27:43.508Z,34.30
2023-11-23T16:30:14.137Z,30.40
2023-11-23T16:32:43.026Z,27.08
2023-11-23T16:35:12.698Z,27.95
2023-11-23T16:37:40.081Z,29.88
2023-11-23T16:40:11.499Z,27.63
2023-11-23T16:42:40.746Z,27.73
2023-11-23T16:45:08.510Z,29.02
2023-11-23T16:47:36.381Z,31.02
2023-11-23T16:50:04.194Z,29.25
2023-11-23T16:52:31.263Z,29.88
2023-11-23T16:54:59.244Z,28.05
2023-11-23T16:57:26.424Z,30.38
2023-11-23T16:59:53.392Z,29.80
2023-11-23T17:02:20.632Z,24.00
2023-11-23T17:04:51.611Z,28.45
2023-11-23T17:07:20.814Z,25.75
2023-11-23T17:09:47.866Z,35.92
2023-11-23T17:12:14.880Z,28.33
2023-11-23T17:14:43.081Z,28.27
2023-11-23T17:17:10.056Z,25.08
2023-11-23T17:19:37.673Z,29.63
2023-11-23T17:22:04.899Z,27.52
2023-11-23T17:24:31.835Z,30.80
2023-11-23T17:26:58.840Z,30.77
2023-11-23T17:29:25.771Z,27.73
2023-11-23T17:31:58.387Z,29.45
2023-11-23T17:34:27.128Z,26.40
2023-11-23T17:36:54.180Z,27.13
2023-11-23T17:39:25.346Z,23.88
2023-11-23T17:41:54.735Z,25.10
2023-11-23T17:44:21.664Z,24.23
2023-11-23T17:46:51.338Z,23.00
2023-11-23T17:49:18.706Z,23.85
2023-11-23T17:51:46.396Z,24.90
2023-11-23T17:54:13.617Z,22.77
2023-11-23T17:56:41.574Z,21.98
2023-11-23T17:59:25.177Z,24.23
2023-11-23T18:01:59.050Z,23.77
2023-11-23T18:04:27.409Z,26.02
2023-11-23T18:06:55.533Z,25.30
2023-11-23T18:09:22.833Z,25.05
2023-11-23T18:11:52.162Z,23.83
2023-11-23T18:14:19.047Z,27.95
2023-11-23T18:16:46.530Z,29.33
2023-11-23T18:19:13.422Z,27.42
2023-11-23T18:21:41.601Z,24.42
2023-11-23T18:24:08.835Z,27.45
2023-11-23T18:26:35.923Z,26.88
2023-11-23T18:29:02.936Z,30.25
2023-11-23T18:31:29.938Z,25.20
2023-11-23T18:33:56.918Z,24.38
2023-11-23T18:36:23.870Z,21.85
2023-11-23T18:38:50.798Z,25.85
2023-11-23T18:41:17.700Z,21.67
2023-11-23T18:43:44.643Z,23.05
2023-11-23T18:46:13.501Z,24.17
2023-11-23T18:48:40.727Z,25.02
2023-11-23T18:51:08.385Z,25.95
2023-11-23T18:53:35.381Z,19.55
2023-11-23T18:56:04.604Z,22.90
2023-11-23T18:58:31.592Z,20.38
2023-11-23T19:01:00.904Z,23.10
2023-11-23T19:03:28.684Z,21.85
2023-11-23T19:05:59.166Z,20.73
2023-11-23T19:08:26.790Z,26.33
2023-11-23T19:10:53.785Z,21.60
2023-11-23T19:13:21.313Z,21.55
2023-11-23T19:15:49.247Z,21.90
2023-11-23T19:18:17.892Z,20.17
2023-11-23T19:20:45.093Z,21.60
2023-11-23T19:23:14.199Z,23.02
2023-11-23T19:25:41.420Z,20.90
2023-11-23T19:28:09.751Z,19.13
2023-11-23T19:30:37.495Z,22.35
2023-11-23T19:33:08.430Z,18.75
2023-11-23T19:35:36.075Z,17.85
2023-11-23T19:38:05.451Z,20.55
2023-11-23T19:40:32.862Z,21.90
2023-11-23T19:43:00.436Z,18.25
2023-11-23T19:45:28.530Z,19.88
2023-11-23T19:47:56.099Z,16.30
2023-11-23T19:50:23.390Z,19.83
2023-11-23T19:52:53.689Z,19.45
2023-11-23T19:55:20.622Z,19.15
2023-11-23T19:57:48.280Z,19.00
2023-11-23T20:00:16.152Z,19.65
2023-11-23T20:02:43.653Z,23.17
2023-11-23T20:05:10.755Z,20.52
2023-11-23T20:07:38.693Z,17.80
2023-11-23T20:10:07.974Z,17.35
2023-11-23T20:12:35.134Z,19.30
2023-11-23T20:15:02.863Z,16.92
2023-11-23T20:17:29.807Z,16.58
2023-11-23T20:19:56.701Z,18.63
2023-11-23T20:22:23.736Z,15.95
2023-11-23T20:24:51.362Z,15.48
2023-11-23T20:27:18.297Z,18.58
2023-11-23T20:29:45.409Z,14.88
2023-11-23T20:32:12.614Z,15.73
2023-11-23T20:34:39.826Z,14.20
2023-11-23T20:37:07.044Z,14.00
2023-11-23T20:39:34.202Z,14.38
2023-11-23T20:42:01.214Z,15.98
2023-11-23T20:44:28.348Z,13.75
2023-11-23T20:46:57.285Z,16.77
2023-11-23T20:49:26.232Z,20.05
2023-11-23T20:51:54.092Z,16.98
2023-11-23T20:54:21.149Z,16.60
2023-11-23T20:56:48.628Z,14.80
2023-11-23T20:59:15.884Z,16.77
2023-11-23T21:01:43.333Z,15.60
2023-11-23T21:04:12.181Z,14.52
2023-11-23T21:06:50.584Z,12.80
2023-11-23T21:09:25.754Z,13.88
2023-11-23T21:11:56.230Z,15.13
2023-11-23T21:14:24.637Z,15.00
2023-11-23T21:16:51.832Z,15.68
2023-11-23T21:19:19.448Z,13.98
2023-11-23T21:21:46.558Z,13.88
2023-11-23T21:24:14.807Z,14.60
2023-11-23T21:26:41.980Z,13.60
2023-11-23T21:29:10.667Z,12.52
2023-11-23T21:31:37.904Z,20.02
2023-11-23T21:34:05.228Z,14.20
2023-11-23T21:36:33.478Z,13.77
2023-11-23T21:39:00.710Z,15.50
2023-11-23T21:41:27.657Z,15.50
2023-11-23T21:43:54.659Z,15.70
2023-11-23T21:46:21.834Z,17.77
2023-11-23T21:48:49.525Z,15.95
2023-11-23T21:51:23.378Z,16.98
2023-11-23T21:53:50.622Z,15.25
2023-11-23T21:56:17.913Z,18.80
2023-11-23T21:58:44.920Z,15.25
2023-11-23T22:01:12.057Z,17.48
2023-11-23T22:03:39.378Z,13.38
2023-11-23T22:06:06.602Z,16.98
2023-11-23T22:08:36.217Z,21.02
2023-11-23T22:11:03.675Z,17.02
2023-11-23T22:13:30.907Z,15.30
2023-11-23T22:15:59.084Z,15.25
2023-11-23T22:18:26.246Z,16.55
2023-11-23T22:20:53.643Z,18.17
2023-11-23T22:23:21.012Z,16.33
2023-11-23T22:25:48.194Z,18.45
2023-11-23T22:28:16.071Z,19.17
2023-11-23T22:30:44.897Z,18.17
2023-11-23T22:33:12.806Z,16.38
2023-11-23T22:35:40.365Z,18.75
2023-11-23T22:38:07.884Z,17.52
2023-11-23T22:40:36.221Z,15.90
2023-11-23T22:43:05.460Z,21.92
2023-11-23T22:45:32.850Z,18.13
2023-11-23T22:48:00.015Z,16.25
2023-11-23T22:50:27.020Z,15.27
2023-11-23T22:52:54.091Z,17.30
2023-11-23T22:55:20.981Z,15.32
2023-11-23T22:57:48.030Z,16.83
2023-11-23T23:00:28.044Z,15.48
2023-11-23T23:03:00.092Z,17.42
2023-11-23T23:05:27.752Z,17.35
2023-11-23T23:07:57.997Z,16.63
2023-11-23T23:10:26.413Z,18.73
2023-11-23T23:12:53.910Z,17.88
2023-11-23T23:15:24.328Z,15.85
2023-11-23T23:17:52.893Z,14.90
2023-11-23T23:20:20.184Z,16.63
2023-11-23T23:22:47.245Z,21.90
2023-11-23T23:25:14.783Z,18.60
2023-11-23T23:27:41.808Z,16.27
2023-11-23T23:30:10.406Z,16.75
2023-11-23T23:32:38.648Z,17.63
2023-11-23T23:35:07.686Z,16.05
2023-11-23T23:37:34.594Z,18.27
2023-11-23T23:40:01.747Z,17.95
2023-11-23T23:42:28.763Z,18.67
2023-11-23T23:44:57.222Z,19.15
2023-11-23T23:47:24.542Z,17.10
2023-11-23T23:49:51.559Z,19.55
2023-11-23T23:52:18.561Z,16.63
2023-11-23T23:54:46.528Z,20.95
2023-11-23T23:57:13.790Z,19.23
2023-11-23T23:59:41.537Z,19.02
